Time;durP1;ratioP1;P1;durP2;ratioP2;P2;SDS_P1;SDS_P2;PMS_P1;PMS_P2;Temp;Humidity;BMP_temperature;BMP_pressure;BME280_temperature;BME280_humidity;BME280_pressure;Samples;Min_cycle;Max_cycle;Signal;HPM_P1;HPM_P2
2021/09/22 00:01:50;;;;;;;10.82;6.30;;;;;;;18.35;53.20;100648.97;5111451;28;20039;-22
2021/09/22 00:04:15;;;;;;;9.50;6.25;;;;;;;18.58;52.78;100657.78;5110862;28;20039;-22
2021/09/22 00:06:41;;;;;;;8.13;6.00;;;;;;;18.50;52.84;100660.97;5110732;28;20483;-22
2021/09/22 00:09:06;;;;;;;9.57;5.70;;;;;;;18.48;52.41;100643.13;5110831;28;20038;-22
2021/09/22 00:11:32;;;;;;;7.82;5.70;;;;;;;18.23;52.89;100656.41;5110701;28;20486;-22
2021/09/22 00:13:57;;;;;;;8.20;6.22;;;;;;;17.88;54.11;100644.16;5110855;28;20032;-22
2021/09/22 00:16:23;;;;;;;7.88;5.47;;;;;;;17.84;54.23;100648.44;5110828;28;20039;-22
2021/09/22 00:18:48;;;;;;;8.88;5.82;;;;;;;17.81;53.99;100648.91;5110487;28;20061;-22
2021/09/22 00:21:14;;;;;;;9.80;6.15;;;;;;;17.71;54.18;100646.09;5110572;28;20063;-22
2021/09/22 00:23:39;;;;;;;8.30;5.78;;;;;;;17.62;54.70;100651.94;5092806;28;20031;-22
2021/09/22 00:26:05;;;;;;;9.95;5.78;;;;;;;17.97;53.96;100653.44;5110462;28;20092;-22
2021/09/22 00:28:31;;;;;;;10.25;5.93;;;;;;;17.53;55.06;100650.75;5110567;28;20032;-22
2021/09/22 00:30:57;;;;;;;9.18;5.47;;;;;;;17.56;55.39;100652.13;5110326;28;20074;-22
2021/09/22 00:33:22;;;;;;;7.82;5.97;;;;;;;17.64;55.37;100643.59;5110056;28;20043;-22
2021/09/22 00:35:48;;;;;;;9.50;6.35;;;;;;;17.70;54.96;100641.78;5110519;28;20030;-22
2021/09/22 00:38:13;;;;;;;7.43;5.45;;;;;;;17.75;55.08;100634.53;5110476;28;20538;-22
2021/09/22 00:40:39;;;;;;;7.72;5.18;;;;;;;17.96;54.02;100626.69;5109914;28;20027;-22
2021/09/22 00:43:04;;;;;;;8.27;5.10;;;;;;;17.88;53.96;100638.78;5110293;28;20471;-22
2021/09/22 00:45:30;;;;;;;10.13;6.32;;;;;;;18.06;53.48;100637.59;5110278;28;20019;-22
2021/09/22 00:47:55;;;;;;;9.88;5.85;;;;;;;17.99;53.96;100634.28;5110081;28;20027;-22
2021/09/22 00:50:21;;;;;;;8.88;5.68;;;;;;;17.70;54.78;100628.28;5110186;28;20419;-22
2021/09/22 00:52:46;;;;;;;9.50;5.88;;;;;;;17.51;55.28;100631.31;5110033;28;20031;-22
2021/09/22 00:55:12;;;;;;;9.00;5.43;;;;;;;17.41;55.61;100628.50;5091801;28;20076;-22
2021/09/22 00:57:45;;;;;;;8.68;5.43;;;;;;;17.52;55.05;100621.34;5109916;28;20028;-26
2021/09/22 01:00:10;;;;;;;7.95;5.07;;;;;;;17.51;55.32;100612.44;5091815;28;20106;-22
2021/09/22 01:02:37;;;;;;;7.72;5.38;;;;;;;17.26;56.03;100611.06;5109666;28;20106;-22
2021/09/22 01:05:03;;;;;;;8.18;6.18;;;;;;;17.38;55.58;100610.09;5091918;28;20034;-22
2021/09/22 01:07:28;;;;;;;10.07;5.38;;;;;;;17.36;55.20;100585.28;5109759;28;20023;-22
2021/09/22 01:09:54;;;;;;;8.23;5.50;;;;;;;17.24;56.00;100613.19;5074541;28;20042;-22
2021/09/22 01:12:19;;;;;;;8.98;5.55;;;;;;;17.88;53.94;100595.59;5109785;28;20461;-22
2021/09/22 01:14:45;;;;;;;10.68;6.68;;;;;;;18.14;53.19;100603.94;5109699;28;20024;-22
2021/09/22 01:17:10;;;;;;;9.63;6.50;;;;;;;17.77;54.65;100597.34;5109443;28;20044;-22
2021/09/22 01:19:36;;;;;;;9.60;6.10;;;;;;;17.61;54.71;100585.59;5109206;28;20027;-22
2021/09/22 01:22:01;;;;;;;10.77;7.57;;;;;;;18.11;53.75;100588.25;5109600;28;20032;-22
2021/09/22 01:24:27;;;;;;;17.10;10.20;;;;;;;18.13;53.89;100592.31;5109455;28;20053;-22
2021/09/22 01:26:52;;;;;;;11.60;8.07;;;;;;;17.84;55.36;100587.19;5109330;28;20058;-22
2021/09/22 01:29:18;;;;;;;10.32;6.07;;;;;;;17.63;55.58;100567.25;5109519;28;20038;-22
2021/09/22 01:31:43;;;;;;;9.00;6.45;;;;;;;17.75;54.52;100585.97;5109094;28;20553;-22
2021/09/22 01:34:11;;;;;;;8.93;6.03;;;;;;;17.87;54.18;100581.28;5109465;28;20063;-22
2021/09/22 01:36:36;;;;;;;8.37;5.77;;;;;;;17.43;55.07;100577.81;5109240;28;20024;-22
2021/09/22 01:39:03;;;;;;;9.45;6.13;;;;;;;17.12;55.85;100555.06;5109361;28;20080;-22
2021/09/22 01:41:28;;;;;;;8.57;6.05;;;;;;;17.36;55.78;100572.59;5109311;28;20110;-22
2021/09/22 01:43:54;;;;;;;8.27;5.35;;;;;;;17.48;55.09;100564.38;5109356;28;20665;-22
2021/09/22 01:46:19;;;;;;;9.35;5.53;;;;;;;17.62;55.51;100579.09;5109212;28;20032;-22
2021/09/22 01:48:45;;;;;;;11.38;5.28;;;;;;;17.71;54.82;100574.06;5109031;28;20043;-22
2021/09/22 01:51:11;;;;;;;7.28;5.40;;;;;;;17.60;54.69;100570.44;5109187;28;20148;-22
2021/09/22 01:53:36;;;;;;;9.98;6.05;;;;;;;17.50;55.30;100567.66;5109319;28;20023;-22
2021/09/22 01:56:03;;;;;;;11.48;5.72;;;;;;;17.22;56.65;100571.34;5109149;28;20104;-22
2021/09/22 01:58:29;;;;;;;7.80;5.50;;;;;;;17.01;55.89;100559.50;5109131;28;20506;-22
2021/09/22 02:00:55;;;;;;;8.43;5.97;;;;;;;16.87;56.90;100562.53;5108879;28;20032;-22
2021/09/22 02:03:21;;;;;;;11.27;6.22;;;;;;;17.44;54.93;100555.97;5109146;28;20039;-21
2021/09/22 02:05:46;;;;;;;11.95;6.82;;;;;;;17.46;53.50;100556.53;5109138;28;20093;-22
2021/09/22 02:08:12;;;;;;;12.77;7.95;;;;;;;17.52;52.39;100557.41;5108987;28;20419;-22
2021/09/22 02:10:38;;;;;;;13.40;8.52;;;;;;;17.51;52.34;100547.72;5108768;28;20110;-22
2021/09/22 02:13:03;;;;;;;12.18;7.50;;;;;;;17.55;52.26;100559.63;5108959;28;20380;-22
2021/09/22 02:15:29;;;;;;;11.70;7.35;;;;;;;18.00;51.74;100557.66;5108856;28;20032;-22
2021/09/22 02:17:54;;;;;;;11.30;7.82;;;;;;;17.89;51.82;100559.44;5090873;28;20035;-22
2021/09/22 02:20:20;;;;;;;12.80;8.10;;;;;;;17.51;52.46;100553.09;5108902;28;20031;-22
2021/09/22 02:22:45;;;;;;;11.68;7.72;;;;;;;17.52;52.72;100548.53;5108656;28;20482;-22
2021/09/22 02:25:11;;;;;;;12.20;8.30;;;;;;;17.53;52.67;100556.38;5108976;28;20042;-22
2021/09/22 02:27:36;;;;;;;12.48;7.95;;;;;;;17.94;51.99;100561.38;5108913;28;20027;-22
2021/09/22 02:30:05;;;;;;;11.50;7.57;;;;;;;17.56;52.27;100558.53;5108966;28;20099;-22
2021/09/22 02:32:30;;;;;;;12.75;8.35;;;;;;;17.21;53.55;100554.38;5094393;28;20051;-22
2021/09/22 02:34:55;;;;;;;13.30;8.85;;;;;;;16.99;54.51;100558.94;5112309;28;20492;-22
2021/09/22 02:37:21;;;;;;;12.60;8.23;;;;;;;16.63;55.89;100561.94;5112914;28;20036;-22
2021/09/22 02:39:46;;;;;;;13.98;8.45;;;;;;;16.27;57.05;100544.41;5113057;28;20043;-22
2021/09/22 02:42:12;;;;;;;13.90;8.85;;;;;;;16.40;57.49;100564.78;5112627;28;20054;-22
2021/09/22 02:44:37;;;;;;;16.63;9.10;;;;;;;16.25;57.87;100562.69;5112241;28;20042;-22
2021/09/22 02:47:03;;;;;;;14.63;9.57;;;;;;;16.58;56.83;100555.66;5112568;28;20076;-22
2021/09/22 02:49:28;;;;;;;13.48;9.02;;;;;;;16.73;56.76;100569.31;5112592;28;20040;-22
2021/09/22 02:51:54;;;;;;;14.00;10.05;;;;;;;16.55;57.44;100565.03;5112356;28;20032;-22
2021/09/22 02:54:19;;;;;;;12.10;7.80;;;;;;;16.54;58.20;100559.88;5112326;28;20036;-22
2021/09/22 02:56:45;;;;;;;12.52;8.48;;;;;;;16.29;58.70;100536.91;5112207;28;20035;-22
2021/09/22 02:59:10;;;;;;;11.93;7.90;;;;;;;16.23;59.96;100564.78;5112163;28;20164;-22
2021/09/22 03:01:36;;;;;;;14.20;7.65;;;;;;;16.05;60.67;100566.63;5094183;28;20024;-22
2021/09/22 03:04:01;;;;;;;13.18;8.00;;;;;;;15.63;62.69;100566.94;5112139;28;20047;-23
2021/09/22 03:06:27;;;;;;;13.00;8.05;;;;;;;15.50;63.51;100566.41;5112137;28;20058;-22
2021/09/22 03:08:52;;;;;;;12.95;7.97;;;;;;;15.63;63.10;100561.56;5112005;28;20066;-22
2021/09/22 03:11:18;;;;;;;13.27;8.40;;;;;;;15.59;63.49;100560.41;5112687;28;20035;-22
2021/09/22 03:13:44;;;;;;;13.13;8.68;;;;;;;15.25;64.71;100565.66;5111836;28;20418;-22
2021/09/22 03:16:09;;;;;;;13.93;8.68;;;;;;;15.17;65.09;100555.28;5111990;28;20111;-22
2021/09/22 03:18:35;;;;;;;12.65;8.63;;;;;;;15.30;64.93;100561.44;5111983;28;20043;-22
2021/09/22 03:21:00;;;;;;;14.45;8.68;;;;;;;15.36;64.23;100545.16;5111888;28;20559;-22
2021/09/22 03:23:26;;;;;;;14.40;9.05;;;;;;;15.32;64.55;100545.88;5111715;28;20072;-22
2021/09/22 03:25:52;;;;;;;12.60;8.50;;;;;;;15.56;63.43;100534.00;5111803;28;20027;-22
2021/09/22 03:28:17;;;;;;;15.27;9.05;;;;;;;15.36;64.24;100533.59;5111734;28;20031;-22
2021/09/22 03:30:43;;;;;;;14.75;8.80;;;;;;;15.31;63.62;100517.41;5111724;28;20051;-22
2021/09/22 03:33:08;;;;;;;13.32;8.95;;;;;;;15.45;63.54;100551.81;5111377;28;20063;-22
2021/09/22 03:35:34;;;;;;;13.57;8.77;;;;;;;15.32;63.77;100548.56;5111520;28;20077;-22
2021/09/22 03:37:59;;;;;;;13.25;8.55;;;;;;;15.46;63.41;100545.38;5111682;28;20078;-22
2021/09/22 03:40:25;;;;;;;20.67;9.02;;;;;;;15.46;63.03;100560.69;5111562;28;20046;-22
2021/09/22 03:42:50;;;;;;;13.50;9.02;;;;;;;15.37;62.73;100556.75;5092452;28;20036;-22
2021/09/22 03:45:16;;;;;;;14.38;9.80;;;;;;;15.45;62.11;100564.44;5111492;28;20475;-22
2021/09/22 03:47:41;;;;;;;14.45;8.93;;;;;;;15.51;62.03;100568.03;5111822;28;20058;-22
2021/09/22 03:50:07;;;;;;;15.20;10.13;;;;;;;15.38;61.29;100542.25;5111303;28;20031;-22
2021/09/22 03:52:32;;;;;;;14.25;10.32;;;;;;;15.48;60.44;100543.25;5111022;28;20398;-22
2021/09/22 03:54:58;;;;;;;14.98;9.70;;;;;;;15.82;59.18;100547.94;5111201;28;20100;-22
2021/09/22 03:57:23;;;;;;;16.08;10.50;;;;;;;15.50;59.80;100537.66;5111021;28;20032;-22
2021/09/22 03:59:49;;;;;;;17.55;10.98;;;;;;;15.36;59.92;100549.72;5111147;28;20050;-22
2021/09/22 04:02:14;;;;;;;14.95;10.93;;;;;;;15.30;60.29;100546.13;5111103;28;20028;-23
2021/09/22 04:04:40;;;;;;;14.77;9.95;;;;;;;15.50;59.39;100542.22;5110896;28;20054;-22
2021/09/22 04:07:05;;;;;;;17.80;11.73;;;;;;;15.71;58.86;100544.22;5110927;28;20739;-22
2021/09/22 04:09:31;;;;;;;15.43;11.30;;;;;;;15.67;58.56;100545.75;5110997;28;20034;-22
2021/09/22 04:11:56;;;;;;;19.33;11.40;;;;;;;15.49;59.12;100541.41;5110856;28;20028;-22
2021/09/22 04:14:22;;;;;;;16.52;10.80;;;;;;;15.08;59.67;100537.91;5111115;28;20064;-22
2021/09/22 04:16:47;;;;;;;18.50;11.63;;;;;;;15.31;59.57;100547.78;5110529;28;20479;-22
2021/09/22 04:19:13;;;;;;;18.42;11.82;;;;;;;15.28;59.20;100529.41;5110954;28;20031;-22
2021/09/22 04:21:38;;;;;;;17.83;11.10;;;;;;;15.23;59.39;100557.00;5110707;28;20028;-22
2021/09/22 04:24:04;;;;;;;16.15;11.63;;;;;;;15.16;59.95;100550.97;5110765;28;20031;-22
2021/09/22 04:26:29;;;;;;;17.63;12.27;;;;;;;15.10;60.05;100532.28;5110505;28;20455;-22
2021/09/22 04:28:55;;;;;;;18.15;12.43;;;;;;;14.97;60.37;100541.41;5110194;28;20479;-22
2021/09/22 04:31:20;;;;;;;18.48;12.00;;;;;;;15.08;60.27;100543.28;5110324;28;20272;-22
2021/09/22 04:33:46;;;;;;;16.15;11.43;;;;;;;14.95;60.47;100535.47;5110148;28;20503;-22
2021/09/22 04:36:14;;;;;;;20.17;12.35;;;;;;;15.00;60.36;100528.34;5110702;28;20035;-22
2021/09/22 04:38:42;;;;;;;;;;;;;;;15.45;59.37;100535.69;5110566;28;20027;-22
2021/09/22 04:41:08;;;;;;;17.67;11.65;;;;;;;15.73;58.58;100530.56;5092108;28;19964;-22
2021/09/22 04:43:34;;;;;;;17.65;11.68;;;;;;;15.81;58.21;100528.31;5092030;28;20049;-22
2021/09/22 04:45:59;;;;;;;18.48;11.95;;;;;;;15.34;58.73;100506.97;5110180;28;20513;-22
2021/09/22 04:48:25;;;;;;;16.75;11.40;;;;;;;15.47;58.71;100530.88;5110226;28;20031;-22
2021/09/22 04:50:50;;;;;;;18.63;11.93;;;;;;;15.19;59.23;100537.06;5109720;28;20911;-22
2021/09/22 04:53:16;;;;;;;16.35;11.60;;;;;;;15.39;58.97;100535.84;5109158;28;20121;-22
2021/09/22 04:55:41;;;;;;;17.48;12.20;;;;;;;15.23;59.33;100534.72;5109984;28;20044;-27
2021/09/22 04:58:07;;;;;;;15.80;11.65;;;;;;;15.63;58.13;100518.56;5110035;28;20030;-22
2021/09/22 05:00:32;;;;;;;17.42;12.18;;;;;;;15.76;57.81;100543.53;5091660;28;20106;-23
2021/09/22 05:02:58;;;;;;;18.88;12.82;;;;;;;15.69;57.59;100527.50;5110070;28;20499;-22
2021/09/22 05:05:23;;;;;;;17.08;11.73;;;;;;;15.57;57.62;100524.91;5109901;28;20035;-22
2021/09/22 05:07:49;;;;;;;16.08;11.82;;;;;;;15.84;57.37;100543.16;5109808;28;20566;-22
2021/09/22 05:10:14;;;;;;;18.85;11.85;;;;;;;15.77;57.46;100554.06;5110060;28;20032;-22
2021/09/22 05:12:40;;;;;;;22.70;12.23;;;;;;;15.76;57.73;100554.28;5109513;28;20028;-22
2021/09/22 05:15:06;;;;;;;18.48;12.65;;;;;;;15.89;56.93;100532.47;5109753;28;20475;-22
2021/09/22 05:17:31;;;;;;;16.98;12.18;;;;;;;16.13;56.70;100543.91;5109651;28;20063;-22
2021/09/22 05:19:57;;;;;;;18.33;12.90;;;;;;;16.46;56.05;100532.31;5109401;28;20426;-22
2021/09/22 05:22:22;;;;;;;18.50;12.88;;;;;;;16.43;56.05;100532.81;5109490;28;20024;-22
2021/09/22 05:24:48;;;;;;;20.65;13.10;;;;;;;16.33;55.68;100538.03;5109360;28;20380;-22
2021/09/22 05:27:13;;;;;;;19.67;12.60;;;;;;;16.06;56.32;100532.50;5109666;28;20032;-22
2021/09/22 05:29:39;;;;;;;17.65;12.20;;;;;;;16.06;56.17;100544.06;5109582;28;20047;-22
2021/09/22 05:32:05;;;;;;;24.70;15.90;;;;;;;15.99;56.59;100539.91;5109208;28;20046;-22
2021/09/22 05:34:30;;;;;;;24.48;16.73;;;;;;;15.97;56.14;100515.94;5109483;28;20517;-23
2021/09/22 05:36:56;;;;;;;18.92;12.07;;;;;;;16.40;55.64;100554.03;5108927;28;20039;-22
2021/09/22 05:39:21;;;;;;;18.92;12.55;;;;;;;16.39;55.28;100528.19;5109941;28;20067;-22
2021/09/22 05:41:47;;;;;;;18.52;12.40;;;;;;;16.48;55.34;100540.94;5109447;28;20539;-22
2021/09/22 05:44:12;;;;;;;20.90;11.65;;;;;;;16.79;55.11;100549.47;5109346;28;20114;-22
2021/09/22 05:46:38;;;;;;;41.25;25.27;;;;;;;16.75;54.55;100539.44;5109031;28;20034;-22
2021/09/22 05:49:04;;;;;;;25.95;17.50;;;;;;;16.75;55.02;100528.69;5109242;28;20035;-22
2021/09/22 05:51:29;;;;;;;21.35;12.93;;;;;;;16.92;54.55;100515.19;5109252;28;20554;-22
2021/09/22 05:53:55;;;;;;;17.38;12.10;;;;;;;17.12;53.70;100517.31;5109085;28;20036;-22
2021/09/22 05:56:21;;;;;;;20.08;14.00;;;;;;;17.21;53.79;100511.25;5109126;28;20399;-22
2021/09/22 05:58:46;;;;;;;18.02;13.23;;;;;;;17.14;53.25;100518.72;5108754;28;20039;-22
2021/09/22 06:01:12;;;;;;;17.88;12.88;;;;;;;17.26;53.35;100497.84;5109227;28;20033;-22
2021/09/22 06:03:37;;;;;;;18.73;12.85;;;;;;;17.38;52.77;100513.06;5108915;28;20399;-22
2021/09/22 06:06:03;;;;;;;17.00;12.82;;;;;;;17.46;52.57;100512.59;5112960;28;20027;-22
2021/09/22 06:08:28;;;;;;;102.93;58.63;;;;;;;17.48;52.81;100515.84;5113340;28;20032;-22
2021/09/22 06:10:54;;;;;;;18.00;13.90;;;;;;;17.27;52.65;100525.59;5113041;28;20445;-22
2021/09/22 06:13:20;;;;;;;18.55;13.50;;;;;;;17.23;53.71;100509.13;5113315;28;20027;-22
2021/09/22 06:15:46;;;;;;;18.15;13.55;;;;;;;17.38;52.22;100516.56;5113377;28;20032;-22
2021/09/22 06:18:12;;;;;;;17.73;13.38;;;;;;;17.40;52.89;100529.78;5113224;28;20043;-22
2021/09/22 06:20:37;;;;;;;28.83;13.10;;;;;;;17.62;52.86;100532.44;5112841;28;20032;-22
2021/09/22 06:23:02;;;;;;;16.33;12.43;;;;;;;17.58;52.25;100521.34;5112988;28;20027;-22
2021/09/22 06:25:28;;;;;;;20.17;13.13;;;;;;;17.25;52.62;100511.56;5112892;28;20431;-22
2021/09/22 06:27:53;;;;;;;16.23;11.50;;;;;;;17.42;52.51;100527.66;5113008;28;20092;-22
2021/09/22 06:30:20;;;;;;;21.23;12.70;;;;;;;17.68;52.41;100526.84;5113145;28;20042;-22
2021/09/22 06:32:45;;;;;;;18.33;11.82;;;;;;;17.61;52.08;100493.06;5112172;28;20042;-22
2021/09/22 06:35:11;;;;;;;16.13;12.10;;;;;;;17.44;52.64;100504.75;5112807;28;20059;-22
2021/09/22 06:37:36;;;;;;;17.83;13.15;;;;;;;17.41;52.21;100523.34;5112779;28;20032;-22
2021/09/22 06:40:03;;;;;;;15.93;12.07;;;;;;;17.21;52.97;100522.03;5112680;28;20038;-22
2021/09/22 06:42:29;;;;;;;18.75;12.70;;;;;;;17.23;52.42;100527.19;5112662;28;20031;-22
2021/09/22 06:44:54;;;;;;;18.45;11.98;;;;;;;17.54;51.77;100520.22;5112328;28;20059;-22
2021/09/22 06:47:20;;;;;;;17.33;12.23;;;;;;;17.79;50.68;100516.97;5112376;28;20486;-22
2021/09/22 06:49:45;;;;;;;16.80;12.20;;;;;;;17.97;50.20;100521.22;5112611;28;20059;-22
2021/09/22 06:52:11;;;;;;;19.20;12.52;;;;;;;17.59;50.89;100514.06;5112396;28;20096;-22
2021/09/22 06:54:36;;;;;;;18.33;12.68;;;;;;;17.11;51.58;100500.34;5112414;28;20479;-22
2021/09/22 06:57:02;;;;;;;16.55;12.50;;;;;;;17.26;51.26;100521.25;5112527;28;20035;-22
2021/09/22 06:59:28;;;;;;;16.70;12.52;;;;;;;17.14;50.92;100510.66;5112437;28;20510;-22
2021/09/22 07:01:53;;;;;;;15.20;11.15;;;;;;;16.95;51.31;100520.91;5112094;28;20032;-22
2021/09/22 07:04:19;;;;;;;18.13;12.52;;;;;;;17.24;51.02;100520.72;5112079;28;20028;-22
2021/09/22 07:06:44;;;;;;;16.90;11.27;;;;;;;17.30;49.66;100521.59;5111969;28;20076;-21
2021/09/22 07:09:10;;;;;;;16.00;11.05;;;;;;;17.04;50.04;100500.53;5112008;28;20024;-22
2021/09/22 07:11:35;;;;;;;16.40;11.20;;;;;;;17.16;48.76;100519.28;5112113;28;20035;-22
2021/09/22 07:14:01;;;;;;;14.45;10.98;;;;;;;16.60;49.49;100515.81;5111948;28;20031;-22
2021/09/22 07:16:27;;;;;;;15.35;10.63;;;;;;;16.59;50.20;100523.09;5110913;28;20023;-22
2021/09/22 07:18:53;;;;;;;16.77;11.00;;;;;;;16.71;49.66;100533.72;5111620;28;20043;-22
2021/09/22 07:21:18;;;;;;;12.52;9.68;;;;;;;16.78;48.94;100520.91;5111200;28;20031;-22
2021/09/22 07:23:44;;;;;;;14.90;10.48;;;;;;;16.83;48.91;100536.34;5110919;28;20027;-22
2021/09/22 07:26:09;;;;;;;14.65;9.98;;;;;;;16.65;47.98;100518.56;5110974;28;20112;-22
2021/09/22 07:28:35;;;;;;;15.82;10.55;;;;;;;16.79;47.75;100527.91;5110654;28;20448;-22
2021/09/22 07:31:01;;;;;;;13.45;9.60;;;;;;;16.90;46.50;100525.41;5110815;28;20034;-22
2021/09/22 07:33:26;;;;;;;14.20;9.57;;;;;;;16.67;46.93;100521.84;5110755;28;20060;-22
2021/09/22 07:35:52;;;;;;;14.80;9.15;;;;;;;16.60;47.44;100527.41;5111427;28;20032;-22
2021/09/22 07:38:17;;;;;;;13.27;9.00;;;;;;;16.60;47.12;100499.66;5111458;28;20441;-22
2021/09/22 07:40:43;;;;;;;10.20;8.07;;;;;;;16.82;46.33;100497.84;5111419;28;20020;-22
2021/09/22 07:43:09;;;;;;;13.30;9.93;;;;;;;17.06;45.92;100487.63;5111501;28;20063;-22
2021/09/22 07:45:35;;;;;;;11.35;9.00;;;;;;;17.18;44.84;100482.13;5111247;28;20035;-22
2021/09/22 07:48:00;;;;;;;12.45;8.55;;;;;;;17.10;45.39;100490.66;5111344;28;20043;-22
2021/09/22 07:50:26;;;;;;;10.73;8.27;;;;;;;17.36;44.58;100477.44;5111714;28;20059;-22
2021/09/22 07:52:51;;;;;;;10.88;8.30;;;;;;;17.76;44.48;100476.22;5110831;28;20044;-22
2021/09/22 07:55:17;;;;;;;10.70;8.15;;;;;;;17.82;42.92;100469.78;5111297;28;20027;-22
2021/09/22 07:57:42;;;;;;;15.30;9.32;;;;;;;17.54;44.70;100493.25;5111223;28;20042;-22
2021/09/22 08:00:08;;;;;;;10.85;7.45;;;;;;;17.05;44.18;100477.91;5111118;28;20019;-22
2021/09/22 08:02:34;;;;;;;11.23;7.85;;;;;;;16.80;44.74;100499.13;5110861;28;20039;-22
2021/09/22 08:04:59;;;;;;;12.27;8.57;;;;;;;16.81;44.56;100493.50;5110906;28;20089;-22
2021/09/22 08:07:25;;;;;;;10.77;7.43;;;;;;;16.77;44.31;100484.25;5111139;28;20027;-22
2021/09/22 08:09:50;;;;;;;11.15;6.95;;;;;;;16.83;43.44;100499.47;5111227;28;20019;-22
2021/09/22 08:12:16;;;;;;;9.55;6.75;;;;;;;16.94;43.41;100486.13;5110920;28;20032;-22
2021/09/22 08:14:41;;;;;;;13.25;7.57;;;;;;;17.03;43.07;100484.63;5110700;28;20023;-22
2021/09/22 08:17:07;;;;;;;11.40;7.68;;;;;;;17.27;42.71;100485.97;5110839;28;20046;-22
2021/09/22 08:19:36;;;;;;;9.90;6.85;;;;;;;17.47;41.85;100479.19;5110765;28;20031;-22
2021/09/22 08:22:02;;;;;;;10.48;7.15;;;;;;;17.36;42.93;100453.19;5110672;28;20103;-22
2021/09/22 08:24:28;;;;;;;11.13;8.23;;;;;;;18.22;42.14;100472.00;5110800;28;20084;-21
2021/09/22 08:26:54;;;;;;;10.48;7.60;;;;;;;18.32;40.95;100476.66;5110385;28;20032;-22
2021/09/22 08:29:20;;;;;;;10.00;7.35;;;;;;;17.90;41.01;100469.34;5110644;28;20024;-22
2021/09/22 08:31:46;;;;;;;9.43;7.30;;;;;;;17.98;41.23;100466.19;5110708;28;20063;-22
2021/09/22 08:34:11;;;;;;;10.25;6.78;;;;;;;17.90;40.61;100463.97;5091902;28;20488;-22
2021/09/22 08:36:39;;;;;;;9.07;7.18;;;;;;;17.91;40.41;100457.47;5110227;28;20494;-22
2021/09/22 08:39:04;;;;;;;11.47;7.07;;;;;;;17.84;40.51;100462.28;5110394;28;20414;-22
2021/09/22 08:41:30;;;;;;;10.25;7.35;;;;;;;17.59;41.01;100452.88;5110329;28;20032;-22
2021/09/22 08:44:02;;;;;;;10.90;7.30;;;;;;;17.39;41.49;100460.78;5110159;28;20096;-22
2021/09/22 08:46:28;;;;;;;9.13;7.10;;;;;;;17.33;41.35;100453.69;5093162;28;20031;-22
2021/09/22 08:48:53;;;;;;;9.95;6.88;;;;;;;17.48;40.42;100451.13;5110070;28;20027;-22
2021/09/22 08:51:19;;;;;;;12.32;7.75;;;;;;;17.30;40.37;100438.81;5110064;28;20039;-22
2021/09/22 08:53:44;;;;;;;11.43;7.63;;;;;;;17.67;40.04;100432.69;5091906;28;20027;-22
2021/09/22 08:56:11;;;;;;;11.40;7.35;;;;;;;17.57;40.13;100424.50;5110130;28;20032;-22
2021/09/22 08:58:37;;;;;;;12.07;7.85;;;;;;;17.40;39.81;100405.78;5109764;28;20035;-22
2021/09/22 09:01:11;;;;;;;9.73;7.13;;;;;;;17.64;39.78;100420.53;5091888;28;20061;-22
2021/09/22 09:03:40;;;;;;;10.65;6.85;;;;;;;17.31;39.26;100385.75;5109913;28;20024;-22
2021/09/22 09:06:23;;;;;;;10.75;7.68;;;;;;;17.52;39.79;100419.09;5109829;28;20475;-22
2021/09/22 09:08:49;;;;;;;13.77;8.57;;;;;;;17.46;39.71;100404.75;5109565;28;20051;-22
2021/09/22 09:11:15;;;;;;;11.15;6.57;;;;;;;17.03;40.19;100407.28;5109571;28;20035;-22
2021/09/22 09:13:47;;;;;;;9.82;7.32;;;;;;;17.18;40.16;100403.13;5109683;28;20027;-22
2021/09/22 09:16:17;;;;;;;12.32;8.30;;;;;;;16.72;40.45;100397.22;5109541;28;20083;-22
2021/09/22 09:18:50;;;;;;;10.93;7.75;;;;;;;16.90;40.87;100409.56;5109482;28;20040;-22
2021/09/22 09:21:16;;;;;;;11.73;7.45;;;;;;;16.96;39.95;100376.22;5109759;28;20032;-22
2021/09/22 09:23:48;;;;;;;11.02;7.55;;;;;;;17.26;39.95;100400.81;5109690;28;20035;-22
2021/09/22 09:26:16;;;;;;;9.93;7.15;;;;;;;17.12;40.56;100396.06;5109612;28;20032;-22
2021/09/22 09:28:41;;;;;;;10.13;7.38;;;;;;;17.05;40.08;100393.56;5109247;28;20080;-22
2021/09/22 09:31:10;;;;;;;8.93;7.18;;;;;;;17.21;39.70;100392.66;5109531;28;20035;-22
2021/09/22 09:33:36;;;;;;;8.35;6.28;;;;;;;17.42;38.50;100403.63;5109350;28;20111;-22
2021/09/22 09:36:13;;;;;;;11.95;7.68;;;;;;;17.35;39.13;100397.66;5109582;28;20019;-22
2021/09/22 09:38:39;;;;;;;11.95;7.28;;;;;;;17.05;39.58;100377.41;5108951;28;20038;-22
2021/09/22 09:41:04;;;;;;;11.65;7.15;;;;;;;17.20;39.23;100385.66;5109163;28;20032;-22
2021/09/22 09:43:30;;;;;;;10.13;7.22;;;;;;;17.51;39.37;100385.94;5109268;28;20035;-22
2021/09/22 09:45:55;;;;;;;9.93;6.93;;;;;;;17.74;38.96;100389.34;5109377;28;20028;-22
2021/09/22 09:48:21;;;;;;;9.55;6.10;;;;;;;17.64;38.27;100381.97;5109383;28;20043;-22
2021/09/22 09:50:52;;;;;;;11.38;7.60;;;;;;;17.61;38.11;100369.84;5073825;28;20036;-22
2021/09/22 09:53:28;;;;;;;9.35;6.97;;;;;;;17.50;38.20;100392.38;5109119;28;20031;-21
2021/09/22 09:55:54;;;;;;;9.20;6.10;;;;;;;17.51;37.79;100377.84;5109450;28;20026;-22
2021/09/22 09:58:20;;;;;;;7.88;6.10;;;;;;;17.57;37.53;100384.91;5109301;28;20027;-22
2021/09/22 10:00:48;;;;;;;8.82;6.15;;;;;;;17.55;37.96;100387.03;5108925;28;20028;-22
2021/09/22 10:03:18;;;;;;;9.20;6.18;;;;;;;17.16;37.33;100368.38;5109113;28;20067;-22
2021/09/22 10:05:44;;;;;;;8.18;5.80;;;;;;;17.29;37.84;100369.81;5109170;28;20035;-22
2021/09/22 10:08:11;;;;;;;8.52;6.13;;;;;;;17.31;38.14;100377.66;5109279;28;20035;-22
2021/09/22 10:10:36;;;;;;;10.63;5.93;;;;;;;17.44;37.75;100369.13;5090887;28;20038;-22
2021/09/22 10:13:02;;;;;;;8.75;6.70;;;;;;;17.35;37.99;100378.78;5109132;28;20380;-21
2021/09/22 10:15:29;;;;;;;8.68;6.25;;;;;;;17.22;38.70;100366.50;5109032;28;20027;-22
2021/09/22 10:17:55;;;;;;;9.55;6.53;;;;;;;17.19;38.63;100346.28;5091010;28;20042;-22
2021/09/22 10:20:20;;;;;;;8.63;5.78;;;;;;;17.58;37.69;100374.91;5109146;28;20027;-22
2021/09/22 10:22:46;;;;;;;8.23;5.57;;;;;;;17.44;37.19;100375.34;5108799;28;20027;-22
2021/09/22 10:25:12;;;;;;;10.27;5.32;;;;;;;17.22;36.58;100353.88;5109129;28;20039;-22
2021/09/22 10:27:38;;;;;;;9.27;5.05;;;;;;;17.52;36.25;100349.78;5090997;28;20036;-22
2021/09/22 10:30:06;;;;;;;8.18;4.95;;;;;;;17.43;35.99;100343.25;5090664;28;20398;-22
2021/09/22 10:32:39;;;;;;;7.50;4.82;;;;;;;17.33;36.36;100333.22;5108473;28;20066;-22
2021/09/22 10:35:26;;;;;;;9.02;4.80;;;;;;;17.76;35.77;100354.84;5108782;28;20071;-22
2021/09/22 10:37:56;;;;;;;6.40;3.95;;;;;;;17.67;35.16;100360.72;5108922;28;20023;-22
2021/09/22 10:40:33;;;;;;;9.02;5.13;;;;;;;17.59;35.34;100347.69;5108992;28;20051;-22
2021/09/22 10:43:14;;;;;;;7.72;4.93;;;;;;;17.78;35.41;100352.69;5108764;28;20103;-22
2021/09/22 10:45:44;;;;;;;8.05;4.80;;;;;;;17.46;35.63;100337.34;5108759;28;20114;-22
2021/09/22 10:48:20;;;;;;;8.70;4.63;;;;;;;17.55;35.70;100327.72;5108870;28;20411;-22
2021/09/22 10:50:52;;;;;;;7.70;4.53;;;;;;;17.66;35.69;100345.59;5108632;28;20032;-22
2021/09/22 10:53:32;;;;;;;7.80;4.88;;;;;;;17.66;36.18;100345.59;5112493;28;20101;-29
2021/09/22 10:56:13;;;;;;;8.70;5.63;;;;;;;17.92;35.87;100337.69;5112393;28;20027;-22
2021/09/22 10:58:46;;;;;;;8.63;5.03;;;;;;;17.94;35.63;100316.66;5112279;28;20538;-22
2021/09/22 11:01:11;;;;;;;8.60;5.20;;;;;;;18.09;35.16;100337.50;5112461;28;20039;-22
2021/09/22 11:03:46;;;;;;;9.32;5.38;;;;;;;18.28;35.26;100341.38;5112265;28;20498;-22
2021/09/22 11:06:42;;;;;;;8.75;5.25;;;;;;;17.72;35.57;100327.56;5112345;28;20034;-22
2021/09/22 11:09:10;;;;;;;11.68;4.95;;;;;;;17.93;36.04;100328.53;5112231;28;20388;-22
2021/09/22 11:11:54;;;;;;;8.60;5.35;;;;;;;17.82;35.74;100327.63;5112395;28;20088;-22
2021/09/22 11:14:29;;;;;;;9.13;4.50;;;;;;;17.72;35.93;100315.97;5111997;28;20039;-22